Time;durP1;ratioP1;P1;durP2;ratioP2;P2;SDS_P1;SDS_P2;PMS_P1;PMS_P2;Temp;Humidity;BMP_temperature;BMP_pressure;BME280_temperature;BME280_humidity;BME280_pressure;Samples;Min_cycle;Max_cycle;Signal;HPM_P1;HPM_P2
2023/03/14 00:04:36;;;;;;;6.85;1.58;;;;;;;19.84;35.72;98964.28;16120632;19;129973;-56
2023/03/14 00:09:58;;;;;;;9.50;1.10;;;;;;;19.82;35.88;98947.09;16123929;19;130794;-56
2023/03/14 00:15:20;;;;;;;5.22;1.40;;;;;;;19.79;35.92;98970.75;16122260;19;130209;-56
2023/03/14 00:20:42;;;;;;;4.78;1.23;;;;;;;19.78;35.67;98973.84;16123908;19;131779;-55
2023/03/14 00:26:15;;;;;;;4.90;1.40;;;;;;;19.77;35.64;98981.31;16116032;19;130947;-55
2023/03/14 00:31:39;;;;;;;3.45;1.35;;;;;;;19.72;35.71;98978.63;16118146;19;134273;-55
2023/03/14 00:37:01;;;;;;;3.65;1.10;;;;;;;19.69;35.87;98974.50;16118295;19;130985;-55
2023/03/14 00:42:23;;;;;;;5.45;1.02;;;;;;;19.67;35.63;98976.78;16121674;19;129624;-55
2023/03/14 00:47:45;;;;;;;6.68;1.23;;;;;;;19.63;35.68;98981.25;16116300;19;129516;-56
2023/03/14 00:53:07;;;;;;;3.33;1.05;;;;;;;19.61;35.49;98972.41;16119255;19;131230;-56
2023/03/14 00:58:29;;;;;;;2.83;1.10;;;;;;;19.60;35.49;98958.84;16117075;19;130584;-56
2023/03/14 01:03:52;;;;;;;3.13;1.17;;;;;;;19.57;35.53;98959.44;16117121;19;129800;-54
2023/03/14 01:09:14;;;;;;;3.50;0.95;;;;;;;19.55;35.79;98956.16;16117679;19;130995;-56
2023/03/14 01:14:36;;;;;;;3.40;1.00;;;;;;;19.53;35.72;98959.22;16117019;19;130226;-56
2023/03/14 01:19:59;;;;;;;4.93;1.17;;;;;;;19.50;35.39;98943.19;16115436;19;129399;-55
2023/03/14 01:25:21;;;;;;;4.18;0.90;;;;;;;19.47;35.59;98929.91;16117526;19;130551;-54
2023/03/14 01:30:43;;;;;;;3.50;1.52;;;;;;;19.46;35.30;98926.34;16116014;19;129267;-54
2023/03/14 01:36:06;;;;;;;4.00;1.00;;;;;;;19.45;35.78;98923.84;16119667;19;130288;-54
2023/03/14 01:41:28;;;;;;;2.42;0.85;;;;;;;19.42;35.49;98925.28;16116238;19;129364;-52
2023/03/14 01:46:50;;;;;;;3.38;1.02;;;;;;;19.42;35.58;98918.91;16113909;19;129751;-55
2023/03/14 01:52:52;;;;;;;2.95;0.85;;;;;;;19.40;35.43;98907.28;16111696;19;133371;-56
2023/03/14 01:58:16;;;;;;;3.95;1.10;;;;;;;19.37;35.69;98909.53;16110360;19;130697;-55
2023/03/14 02:03:47;;;;;;;3.67;0.93;;;;;;;19.36;35.24;98907.09;16118451;19;130356;-56
2023/03/14 02:09:09;;;;;;;6.43;1.23;;;;;;;19.33;35.69;98894.63;16112444;19;129572;-49
2023/03/14 02:14:34;;;;;;;6.70;0.90;;;;;;;19.33;35.64;98882.72;16116201;19;130314;-51
2023/03/14 02:20:08;;;;;;;2.65;0.82;;;;;;;19.32;35.15;98879.09;16113054;19;131047;-54
2023/03/14 02:25:43;;;;;;;4.00;1.13;;;;;;;19.30;35.57;98872.22;16117155;19;129561;-56
2023/03/14 02:31:05;;;;;;;4.57;1.00;;;;;;;19.28;35.67;98871.69;16112607;19;129914;-58
2023/03/14 02:36:28;;;;;;;5.68;1.10;;;;;;;19.26;35.64;98877.56;16109826;19;129756;-55
2023/03/14 02:41:50;;;;;;;4.05;1.10;;;;;;;19.26;35.40;98880.31;16116397;19;129869;-56
2023/03/14 02:47:12;;;;;;;3.20;1.05;;;;;;;19.24;35.17;98879.00;16115194;19;134203;-55
2023/03/14 02:52:34;;;;;;;4.90;0.93;;;;;;;19.22;35.19;98876.50;16113329;19;129612;-56
2023/03/14 02:57:55;;;;;;;5.07;1.25;;;;;;;19.21;35.66;98877.63;16110528;19;131112;-55
2023/03/14 03:03:17;;;;;;;2.83;0.90;;;;;;;19.20;35.51;98878.75;16123535;19;130422;-55
2023/03/14 03:08:39;;;;;;;5.75;1.48;;;;;;;19.18;35.72;98879.03;16128271;19;130041;-56
2023/03/14 03:14:01;;;;;;;3.85;1.20;;;;;;;19.17;35.71;98871.81;16125578;19;130389;-56
2023/03/14 03:19:23;;;;;;;2.88;1.10;;;;;;;19.15;35.43;98870.50;16126483;19;130343;-55
2023/03/14 03:24:45;;;;;;;5.28;1.20;;;;;;;19.13;35.70;98864.41;16127321;19;129934;-55
2023/03/14 03:30:08;;;;;;;4.38;1.00;;;;;;;19.14;35.66;98863.28;16127030;19;130933;-55
2023/03/14 03:35:30;;;;;;;5.28;1.33;;;;;;;19.12;35.57;98871.06;16128149;19;130270;-54
2023/03/14 03:40:52;;;;;;;3.97;1.00;;;;;;;19.11;35.37;98863.88;16128424;19;132621;-56
2023/03/14 03:46:14;;;;;;;1.95;0.77;;;;;;;19.09;35.24;98861.44;16122530;19;129974;-56
2023/03/14 03:51:36;;;;;;;4.00;1.05;;;;;;;19.08;35.47;98857.81;16115537;19;130817;-55
2023/03/14 03:56:58;;;;;;;3.22;0.90;;;;;;;19.06;35.69;98865.63;16123523;19;129796;-56
2023/03/14 04:02:19;;;;;;;4.72;0.98;;;;;;;19.05;35.28;98855.66;16112806;19;130646;-54
2023/03/14 04:07:41;;;;;;;3.08;1.10;;;;;;;19.04;35.70;98848.47;16119698;19;130992;-56
2023/03/14 04:13:03;;;;;;;2.17;0.80;;;;;;;19.04;35.49;98854.00;16115456;19;129519;-54
2023/03/14 04:18:25;;;;;;;3.33;0.90;;;;;;;19.03;35.46;98852.38;16121302;19;129500;-58
2023/03/14 04:23:47;;;;;;;2.25;0.80;;;;;;;19.02;35.77;98849.88;16118972;19;130046;-54
2023/03/14 04:29:09;;;;;;;1.52;0.68;;;;;;;19.01;35.49;98849.06;16119637;19;130654;-56
2023/03/14 04:34:33;;;;;;;3.67;1.15;;;;;;;18.98;35.58;98844.13;16116042;19;129824;-55
2023/03/14 04:39:55;;;;;;;3.88;1.00;;;;;;;18.99;35.49;98840.22;16124404;19;130879;-56
2023/03/14 04:45:17;;;;;;;3.03;0.80;;;;;;;18.97;35.75;98825.84;16117877;19;133474;-56
2023/03/14 04:50:39;;;;;;;4.25;0.98;;;;;;;18.95;35.89;98828.09;16118260;19;129680;-54
2023/03/14 04:56:01;;;;;;;2.15;0.70;;;;;;;18.94;35.70;98837.53;16117764;19;131611;-55
2023/03/14 05:01:23;;;;;;;5.38;0.80;;;;;;;18.93;35.83;98835.91;16115433;19;130223;-56
2023/03/14 05:06:45;;;;;;;2.08;0.90;;;;;;;18.90;35.46;98834.53;16120163;19;130257;-57
2023/03/14 05:12:08;;;;;;;2.80;0.75;;;;;;;18.91;35.67;98818.75;16120664;19;130127;-57
2023/03/14 05:17:31;;;;;;;4.00;1.00;;;;;;;18.89;35.53;98815.44;16118807;19;131019;-56
2023/03/14 05:22:53;;;;;;;2.67;0.90;;;;;;;18.88;35.70;98806.31;16113631;19;129767;-57
2023/03/14 05:28:15;;;;;;;2.75;0.60;;;;;;;18.88;35.94;98806.31;16120215;19;129151;-56
2023/03/14 05:33:37;;;;;;;1.55;0.68;;;;;;;18.87;35.59;98806.59;16116529;19;131298;-54
2023/03/14 05:38:59;;;;;;;6.05;1.00;;;;;;;18.86;35.57;98808.56;16115880;19;130533;-55
2023/03/14 05:44:20;;;;;;;3.10;1.17;;;;;;;18.85;36.08;98806.91;16114966;19;129468;-54
2023/03/14 05:49:42;;;;;;;1.67;0.70;;;;;;;18.84;36.02;98810.81;16115182;19;131193;-56
2023/03/14 05:55:04;;;;;;;2.88;0.70;;;;;;;18.84;35.83;98815.50;16114895;19;129228;-57
2023/03/14 06:00:26;;;;;;;1.73;0.73;;;;;;;18.82;35.73;98813.03;16109451;19;130160;-54
2023/03/14 06:05:51;;;;;;;1.67;0.70;;;;;;;18.82;35.96;98812.22;16109215;19;130399;-56
2023/03/14 06:11:13;;;;;;;1.87;0.80;;;;;;;18.94;35.91;98803.44;16115932;19;130006;-57
2023/03/14 06:16:35;;;;;;;1.80;0.70;;;;;;;19.24;35.80;98807.72;16113557;19;129318;-54
2023/03/14 06:21:57;;;;;;;1.20;0.50;;;;;;;19.46;35.57;98803.47;16108661;19;130179;-56
2023/03/14 06:27:19;;;;;;;3.35;0.70;;;;;;;19.63;35.41;98819.56;16114390;19;129327;-57
2023/03/14 06:32:40;;;;;;;4.25;0.88;;;;;;;19.76;35.37;98817.94;16116059;19;129852;-57
2023/03/14 06:38:02;;;;;;;5.93;0.77;;;;;;;19.80;34.94;98818.97;16116862;19;129074;-57
2023/03/14 06:43:24;;;;;;;3.50;0.60;;;;;;;19.81;35.32;98829.75;16117578;19;130928;-55
2023/03/14 06:48:46;;;;;;;6.22;0.73;;;;;;;19.77;35.20;98836.22;16114876;19;128969;-57
2023/03/14 06:54:09;;;;;;;7.50;0.70;;;;;;;19.72;35.25;98851.03;16106338;19;129832;-56
2023/03/14 06:59:30;;;;;;;16.20;1.08;;;;;;;19.66;35.53;98861.38;16096992;19;129293;-56
2023/03/14 07:04:52;;;;;;;8.43;0.88;;;;;;;19.60;35.33;98956.88;16111320;19;130074;-55
2023/03/14 07:10:14;;;;;;;4.75;0.80;;;;;;;19.50;35.40;98976.47;16110354;19;129321;-57
2023/03/14 07:15:36;;;;;;;5.13;0.82;;;;;;;19.43;35.39;99010.13;16112586;19;129444;-56
2023/03/14 07:20:58;;;;;;;5.30;0.80;;;;;;;19.36;35.36;99037.41;16109352;19;129741;-56
2023/03/14 07:26:20;;;;;;;2.30;0.55;;;;;;;19.29;35.62;99045.22;16112318;19;129699;-52
2023/03/14 07:31:41;;;;;;;8.65;1.00;;;;;;;19.22;35.77;99073.31;16113793;19;131682;-53
2023/03/14 07:37:04;;;;;;;1.65;0.40;;;;;;;19.16;35.36;99100.25;16113392;19;129889;-56
2023/03/14 07:42:26;;;;;;;1.02;0.50;;;;;;;19.10;35.71;99122.75;16108159;19;129118;-51
2023/03/14 07:47:48;;;;;;;2.42;0.60;;;;;;;19.04;35.57;99146.94;16118084;19;129675;-55
2023/03/14 07:53:10;;;;;;;6.20;0.60;;;;;;;19.04;35.69;99169.94;16126366;19;130199;-56
2023/03/14 07:58:32;;;;;;;1.30;0.52;;;;;;;19.08;35.37;99187.63;16127204;19;131977;-55
2023/03/14 08:03:54;;;;;;;1.40;0.60;;;;;;;19.14;35.63;99202.25;16127127;19;128989;-56
2023/03/14 08:09:16;;;;;;;4.03;0.30;;;;;;;19.28;35.48;99213.53;16125780;19;131541;-56
2023/03/14 08:14:37;;;;;;;5.03;0.70;;;;;;;19.44;35.36;99235.59;16124042;19;130481;-56
2023/03/14 08:19:59;;;;;;;3.13;0.40;;;;;;;19.58;35.11;99267.03;16120337;19;129450;-55
2023/03/14 08:25:21;;;;;;;2.25;0.50;;;;;;;19.68;34.56;99279.97;16121158;19;129657;-56
2023/03/14 08:30:43;;;;;;;3.85;0.88;;;;;;;19.77;34.90;99292.06;16123623;19;131315;-56
2023/03/14 08:36:08;;;;;;;0.70;0.40;;;;;;;19.81;34.34;99304.25;16120973;19;129489;-56
2023/03/14 08:41:30;;;;;;;1.73;0.47;;;;;;;19.81;34.48;99320.09;16121487;19;129219;-55
2023/03/14 08:46:52;;;;;;;2.20;0.40;;;;;;;19.79;34.28;99339.78;16111649;19;130329;-57
2023/03/14 08:52:16;;;;;;;1.40;0.50;;;;;;;19.74;34.47;99353.72;16098162;19;131766;-54
2023/03/14 08:57:37;;;;;;;1.25;0.30;;;;;;;19.67;34.76;99375.41;16108142;19;129876;-54
2023/03/14 09:02:59;;;;;;;2.35;0.50;;;;;;;19.60;34.63;99397.94;16112685;19;130562;-54
2023/03/14 09:08:21;;;;;;;1.42;0.50;;;;;;;19.52;34.35;99416.03;16120456;19;129979;-56
2023/03/14 09:13:43;;;;;;;1.30;0.50;;;;;;;19.46;34.43;99435.78;16121247;19;130132;-55
2023/03/14 09:19:05;;;;;;;2.45;0.50;;;;;;;19.40;34.69;99464.69;16122721;19;129479;-56
2023/03/14 09:24:30;;;;;;;1.17;0.35;;;;;;;19.33;34.92;99485.22;16120863;19;131708;-55
2023/03/14 09:29:51;;;;;;;1.30;0.50;;;;;;;19.31;34.59;99497.72;16119981;19;129632;-56
2023/03/14 09:35:13;;;;;;;1.40;0.52;;;;;;;19.27;34.50;99527.97;16120688;19;129593;-56
2023/03/14 09:40:37;;;;;;;2.10;0.40;;;;;;;19.24;34.90;99539.63;16120084;19;130247;-56
2023/03/14 09:46:01;;;;;;;1.13;0.40;;;;;;;19.30;35.00;99566.22;16120724;19;129991;-57
2023/03/14 09:51:24;;;;;;;2.10;0.57;;;;;;;19.40;34.84;99581.16;16115397;19;129688;-56
2023/03/14 09:56:46;;;;;;;3.05;0.63;;;;;;;19.51;34.33;99588.31;16117706;19;129842;-56
2023/03/14 10:02:20;;;;;;;3.10;0.30;;;;;;;19.59;34.60;99612.66;16111281;19;130968;-55
2023/03/14 10:07:42;;;;;;;1.98;0.32;;;;;;;19.66;34.13;99635.41;16116462;19;129594;-57
2023/03/14 10:13:21;;;;;;;2.13;0.57;;;;;;;19.78;34.22;99653.66;16111006;19;129316;-56
2023/03/14 10:18:46;;;;;;;1.70;0.60;;;;;;;19.84;34.19;99678.31;16114608;19;130168;-55
2023/03/14 10:24:21;;;;;;;3.17;1.07;;;;;;;19.88;33.74;99711.06;16114268;19;129758;-57
2023/03/14 10:29:55;;;;;;;4.13;0.50;;;;;;;19.89;33.56;99724.66;16112655;19;130128;-54
2023/03/14 10:35:22;;;;;;;1.60;0.40;;;;;;;19.80;33.94;99740.25;16116998;19;129394;-54
2023/03/14 10:40:49;;;;;;;2.03;0.60;;;;;;;19.75;33.70;99766.06;16117373;19;131886;-56
2023/03/14 10:46:19;;;;;;;1.90;0.60;;;;;;;19.68;33.45;99787.72;16120591;19;129594;-56
2023/03/14 10:51:41;;;;;;;3.63;0.50;;;;;;;19.57;33.68;99803.53;16115746;19;129508;-56
2023/03/14 10:57:05;;;;;;;1.70;0.52;;;;;;;19.48;33.58;99824.63;16115194;19;129980;-56
2023/03/14 11:02:33;;;;;;;2.35;0.80;;;;;;;19.40;33.71;99841.84;16112377;19;129326;-53
2023/03/14 11:08:20;;;;;;;2.58;0.68;;;;;;;19.40;33.71;99864.03;16115313;19;129728;-57
2023/03/14 11:13:52;;;;;;;2.95;0.60;;;;;;;19.38;33.62;99879.00;16115411;19;131888;-56
2023/03/14 11:19:32;;;;;;;2.90;0.80;;;;;;;19.35;33.36;99896.19;16113886;19;129909;-56
2023/03/14 11:25:17;;;;;;;3.15;0.57;;;;;;;19.37;33.29;99909.81;16129529;19;129670;-56
2023/03/14 11:30:50;;;;;;;2.55;0.57;;;;;;;19.36;33.59;99925.59;16129739;19;131741;-56
2023/03/14 11:36:21;;;;;;;2.65;0.70;;;;;;;19.33;33.24;99934.47;16126302;19;133700;-55
2023/03/14 11:41:52;;;;;;;3.38;0.60;;;;;;;19.31;33.16;99952.50;16128887;19;130086;-56
2023/03/14 11:47:30;;;;;;;1.40;0.50;;;;;;;19.26;33.49;99975.50;16130956;19;129689;-56
2023/03/14 11:53:08;;;;;;;3.97;0.90;;;;;;;19.18;33.48;100003.75;16131644;19;133563;-53
2023/03/14 11:58:35;;;;;;;2.55;0.70;;;;;;;19.11;32.98;100020.63;16124696;19;129676;-52
2023/03/14 12:04:07;;;;;;;2.88;0.70;;;;;;;19.06;32.92;100028.91;16127596;19;130252;-50
2023/03/14 12:09:30;;;;;;;3.90;0.95;;;;;;;19.00;33.37;100041.09;16126072;19;129083;-55
2023/03/14 12:14:59;;;;;;;1.77;0.63;;;;;;;18.97;33.38;100036.91;16125761;19;133661;-55
2023/03/14 12:20:24;;;;;;;5.00;0.93;;;;;;;19.04;33.36;100045.84;16128344;19;129786;-54
2023/03/14 12:25:46;;;;;;;2.53;0.87;;;;;;;19.20;32.81;100057.00;16125107;19;129448;-55
2023/03/14 12:31:29;;;;;;;4.43;0.70;;;;;;;19.44;32.82;100074.00;16128066;19;129583;-55
2023/03/14 12:36:54;;;;;;;4.40;1.33;;;;;;;19.57;32.47;100088.47;16125253;19;129005;-53
2023/03/14 12:42:22;;;;;;;5.30;1.13;;;;;;;19.76;32.04;100105.44;16129072;19;129003;-57
2023/03/14 12:47:54;;;;;;;7.43;1.33;;;;;;;19.87;31.90;100103.53;16128380;19;130038;-58
2023/03/14 12:53:31;;;;;;;3.90;1.30;;;;;;;19.94;31.74;100107.69;16128636;19;129350;-52
2023/03/14 12:59:14;;;;;;;3.88;1.33;;;;;;;20.00;31.68;100116.88;16124433;19;129805;-55
2023/03/14 13:04:42;;;;;;;5.18;1.60;;;;;;;19.99;31.76;100132.72;16124305;19;129560;-55
2023/03/14 13:10:07;;;;;;;5.15;1.27;;;;;;;19.96;31.42;100144.34;16126157;19;129416;-52
2023/03/14 13:15:40;;;;;;;6.82;1.63;;;;;;;19.90;31.52;100150.16;16124286;19;130202;-50
2023/03/14 13:21:27;;;;;;;4.22;1.67;;;;;;;19.83;31.12;100172.63;16124351;19;130167;-54
2023/03/14 13:26:51;;;;;;;9.07;2.08;;;;;;;19.73;31.31;100178.13;16126661;19;130163;-52
2023/03/14 13:32:19;;;;;;;5.35;1.40;;;;;;;19.67;31.07;100203.13;16123966;19;129653;-56
2023/03/14 13:37:41;;;;;;;7.32;2.13;;;;;;;19.62;30.69;100221.69;16119405;19;129296;-56
2023/03/14 13:43:25;;;;;;;10.18;2.35;;;;;;;19.55;30.95;100227.47;16123236;19;131116;-53
2023/03/14 13:48:55;;;;;;;8.73;1.77;;;;;;;19.51;29.87;100234.66;16121602;19;129324;-54
2023/03/14 13:54:20;;;;;;;7.50;2.00;;;;;;;19.48;30.54;100243.50;16126198;19;131903;-52
2023/03/14 13:59:42;;;;;;;7.00;2.00;;;;;;;19.44;30.14;100265.41;16121958;19;129388;-54
2023/03/14 14:05:04;;;;;;;9.55;2.28;;;;;;;19.42;30.04;100283.44;16119815;19;132315;-53
2023/03/14 14:10:28;;;;;;;8.32;1.75;;;;;;;19.39;29.89;100306.97;16117557;19;129599;-57
2023/03/14 14:15:54;;;;;;;8.05;1.70;;;;;;;19.36;29.48;100325.00;16117904;19;130620;-54
2023/03/14 14:21:16;;;;;;;8.23;1.77;;;;;;;19.35;29.06;100339.97;16119712;19;129283;-53
2023/03/14 14:26:53;;;;;;;7.00;1.98;;;;;;;19.37;28.78;100362.72;16117714;19;129710;-50
2023/03/14 14:32:15;;;;;;;7.75;2.03;;;;;;;19.44;28.50;100383.88;16121670;19;129656;-56
2023/03/14 14:37:44;;;;;;;11.23;1.75;;;;;;;19.53;27.97;100407.25;16119048;19;130419;-55
2023/03/14 14:43:06;;;;;;;6.20;1.60;;;;;;;19.56;27.81;100422.50;16116733;19;129646;-55
2023/03/14 14:48:28;;;;;;;7.30;1.60;;;;;;;19.66;26.89;100445.63;16115166;19;129491;-50
2023/03/14 14:53:59;;;;;;;6.57;1.33;;;;;;;19.76;27.12;100477.34;16119911;19;130963;-55
2023/03/14 14:59:28;;;;;;;10.00;1.65;;;;;;;19.79;26.50;100487.94;16126683;19;129545;-52
2023/03/14 15:04:50;;;;;;;4.95;1.45;;;;;;;19.78;26.08;100484.28;16130870;19;130240;-55
2023/03/14 15:10:15;;;;;;;5.40;1.63;;;;;;;19.78;25.98;100491.81;16126105;19;133304;-53
2023/03/14 15:15:37;;;;;;;4.87;1.30;;;;;;;19.75;26.44;100506.19;16132575;19;132170;-54
2023/03/14 15:20:59;;;;;;;4.60;1.00;;;;;;;19.68;26.85;100521.16;16134018;19;129584;-52
2023/03/14 15:26:24;;;;;;;7.53;1.40;;;;;;;19.61;26.33;100531.59;16129894;19;129496;-50
2023/03/14 15:31:46;;;;;;;6.30;1.37;;;;;;;19.54;26.17;100547.63;16127959;19;130092;-53
2023/03/14 15:37:12;;;;;;;5.15;1.00;;;;;;;19.51;26.29;100550.94;16130926;19;130831;-52
2023/03/14 15:42:33;;;;;;;8.07;1.88;;;;;;;19.44;26.60;100572.50;16124132;19;129716;-55
2023/03/14 15:47:55;;;;;;;4.57;1.23;;;;;;;19.38;26.69;100589.09;16107683;19;131165;-58
2023/03/14 15:53:17;;;;;;;7.60;1.73;;;;;;;19.31;26.70;100594.00;16124388;19;130664;-53
2023/03/14 15:58:40;;;;;;;4.25;1.30;;;;;;;19.25;26.71;100600.56;16128411;19;131270;-54
2023/03/14 16:04:02;;;;;;;5.80;1.38;;;;;;;19.20;26.69;100606.03;16127557;19;129223;-54
2023/03/14 16:09:26;;;;;;;7.13;1.65;;;;;;;19.20;26.71;100619.91;16130232;19;129382;-51
2023/03/14 16:14:48;;;;;;;5.60;1.30;;;;;;;19.28;26.39;100633.34;16131290;19;130104;-49
2023/03/14 16:20:10;;;;;;;8.80;1.73;;;;;;;19.41;25.82;100642.38;16123302;19;130875;-53
2023/03/14 16:25:32;;;;;;;2.85;1.10;;;;;;;19.69;25.74;100656.00;16128055;19;131219;-54
2023/03/14 16:31:06;;;;;;;5.70;1.38;;;;;;;20.12;25.29;100658.16;16129026;19;129657;-53
2023/03/14 16:36:28;;;;;;;5.57;1.35;;;;;;;20.43;25.10;100675.94;16126008;19;130689;-55
2023/03/14 16:41:49;;;;;;;7.15;1.88;;;;;;;20.71;25.00;100687.00;16125979;19;129822;-56
2023/03/14 16:47:11;;;;;;;5.75;1.55;;;;;;;20.82;24.71;100699.88;16124066;19;129279;-55
2023/03/14 16:52:33;;;;;;;4.45;1.20;;;;;;;20.84;24.45;100708.81;16122822;19;131132;-53
2023/03/14 16:57:55;;;;;;;6.65;1.40;;;;;;;20.78;24.69;100720.16;16127420;19;129164;-54
2023/03/14 17:03:18;;;;;;;5.90;1.38;;;;;;;20.67;24.33;100735.91;16121889;19;130285;-53
2023/03/14 17:08:40;;;;;;;4.45;1.30;;;;;;;20.55;24.25;100750.81;16124101;19;129573;-54
2023/03/14 17:14:03;;;;;;;10.00;1.50;;;;;;;20.42;24.49;100754.84;16122633;19;130316;-52
2023/03/14 17:19:25;;;;;;;6.63;1.33;;;;;;;20.32;25.05;100767.78;16117501;19;129612;-54
2023/03/14 17:24:47;;;;;;;6.53;1.40;;;;;;;20.20;25.08;100787.38;16119661;19;129453;-55
2023/03/14 17:30:09;;;;;;;6.43;1.67;;;;;;;20.10;25.04;100796.44;16122059;19;130891;-54
2023/03/14 17:35:31;;;;;;;8.65;1.50;;;;;;;20.01;25.21;100801.59;16125252;19;129798;-53
2023/03/14 17:40:53;;;;;;;6.03;1.50;;;;;;;19.96;25.29;100821.78;16118347;19;129822;-55
2023/03/14 17:46:15;;;;;;;6.30;1.35;;;;;;;19.87;25.63;100837.22;16119862;19;129558;-55
2023/03/14 17:51:38;;;;;;;5.78;1.50;;;;;;;19.80;25.81;100850.47;16114219;19;129695;-52
2023/03/14 17:57:00;;;;;;;7.93;1.38;;;;;;;19.76;26.51;100860.38;16117029;19;129509;-53
2023/03/14 18:02:24;;;;;;;6.43;1.60;;;;;;;19.79;27.00;100862.66;16115455;19;130909;-53
2023/03/14 18:07:46;;;;;;;8.00;1.50;;;;;;;19.90;27.04;100878.34;16115671;19;131652;-54
2023/03/14 18:13:08;;;;;;;6.05;1.33;;;;;;;20.04;27.64;100883.56;16113535;19;130162;-53
2023/03/14 18:18:30;;;;;;;9.20;1.63;;;;;;;20.16;27.51;100895.41;16113091;19;129971;-55
2023/03/14 18:23:52;;;;;;;6.55;1.30;;;;;;;20.22;27.88;100908.25;16113452;19;134089;-46
2023/03/14 18:29:14;;;;;;;13.23;2.10;;;;;;;20.25;27.51;100907.72;16114749;19;132168;-50
2023/03/14 18:34:36;;;;;;;9.02;1.30;;;;;;;20.22;27.72;100930.47;16112632;19;129637;-50
2023/03/14 18:39:58;;;;;;;6.75;1.30;;;;;;;20.31;28.11;100949.50;16113504;19;131165;-52
2023/03/14 18:45:20;;;;;;;8.80;1.60;;;;;;;20.48;27.75;100950.25;16102985;19;130667;-50
2023/03/14 18:50:41;;;;;;;6.20;1.20;;;;;;;20.71;28.10;100956.63;16110709;19;129264;-44
2023/03/14 18:56:04;;;;;;;14.82;1.50;;;;;;;20.97;28.23;100959.75;16110543;19;130388;-46
2023/03/14 19:01:29;;;;;;;7.60;1.50;;;;;;;21.19;27.92;100971.66;16111931;19;129750;-50
2023/03/14 19:06:52;;;;;;;15.15;1.27;;;;;;;21.37;27.90;100975.19;16113876;19;129271;-48
2023/03/14 19:12:15;;;;;;;15.05;2.15;;;;;;;21.62;28.14;100973.75;16115703;19;129421;-53
2023/03/14 19:17:37;;;;;;;14.13;1.60;;;;;;;21.94;27.58;100986.78;16110650;19;134198;-47
2023/03/14 19:22:59;;;;;;;13.30;2.15;;;;;;;22.24;27.78;100991.75;16110151;19;130450;-52
2023/03/14 19:28:21;;;;;;;9.00;1.55;;;;;;;22.52;26.94;100986.06;16110897;19;131318;-50
2023/03/14 19:33:43;;;;;;;8.73;1.60;;;;;;;22.76;27.08;100999.56;16110764;19;130333;-52
2023/03/14 19:39:05;;;;;;;8.05;1.60;;;;;;;22.87;27.36;101004.88;16112312;19;131126;-49
2023/03/14 19:44:27;;;;;;;8.75;1.48;;;;;;;22.91;27.17;101013.56;16118341;19;130794;-50
2023/03/14 19:49:49;;;;;;;8.43;1.50;;;;;;;22.88;26.91;101012.13;16123790;19;129944;-45
2023/03/14 19:55:11;;;;;;;6.03;1.80;;;;;;;22.81;27.38;101021.88;16124961;19;129319;-53
2023/03/14 20:00:33;;;;;;;9.07;1.45;;;;;;;22.66;27.78;101034.63;16124077;19;129852;-47
2023/03/14 20:05:55;;;;;;;6.07;1.40;;;;;;;22.49;28.04;101031.22;16126340;19;130797;-46
2023/03/14 20:11:17;;;;;;;15.57;1.83;;;;;;;22.29;28.30;101027.19;16126154;19;130762;-49
2023/03/14 20:16:39;;;;;;;7.50;1.23;;;;;;;22.11;28.58;101036.78;16123720;19;129739;-47
2023/03/14 20:22:02;;;;;;;6.50;1.55;;;;;;;21.91;28.21;101035.53;16119183;19;129876;-46
2023/03/14 20:27:24;;;;;;;2.40;0.82;;;;;;;21.74;28.84;101044.03;16091534;19;129859;-45
2023/03/14 20:32:48;;;;;;;3.80;1.30;;;;;;;21.57;28.84;101051.63;16119679;19;129816;-45
2023/03/14 20:38:10;;;;;;;6.30;1.50;;;;;;;21.41;29.23;101062.63;16121124;19;131745;-48
2023/03/14 20:43:32;;;;;;;7.40;1.38;;;;;;;21.28;29.31;101058.28;16123529;19;130651;-48
2023/03/14 20:48:54;;;;;;;10.07;1.50;;;;;;;21.16;29.48;101069.56;16128652;19;129143;-50
2023/03/14 20:54:16;;;;;;;6.53;1.65;;;;;;;21.10;29.51;101067.81;16117618;19;129585;-45
2023/03/14 20:59:37;;;;;;;8.10;1.33;;;;;;;21.15;29.84;101059.53;16121478;19;130814;-48
2023/03/14 21:05:00;;;;;;;9.50;1.65;;;;;;;21.35;29.50;101058.06;16120425;19;130804;-47
2023/03/14 21:10:22;;;;;;;14.98;1.80;;;;;;;21.52;29.70;101064.44;16120089;19;130334;-50
2023/03/14 21:15:44;;;;;;;5.35;1.60;;;;;;;21.63;29.44;101062.56;16118120;19;129748;-56
2023/03/14 21:21:06;;;;;;;9.55;1.42;;;;;;;21.71;29.62;101088.28;16104248;19;131335;-54
2023/03/14 21:26:28;;;;;;;12.25;1.30;;;;;;;21.77;29.84;101093.63;16116938;19;130087;-57
2023/03/14 21:31:50;;;;;;;3.95;1.30;;;;;;;21.81;29.75;101096.72;16119307;19;129127;-53
2023/03/14 21:37:11;;;;;;;4.60;1.40;;;;;;;21.80;29.67;101098.63;16122231;19;131041;-51
2023/03/14 21:42:33;;;;;;;6.03;1.52;;;;;;;21.74;29.96;101094.16;16123456;19;129637;-53
2023/03/14 21:47:57;;;;;;;6.18;1.70;;;;;;;21.68;30.04;101100.75;16121005;19;131187;-53
2023/03/14 21:53:18;;;;;;;8.55;1.50;;;;;;;21.59;30.26;101102.34;16120221;19;130160;-51
2023/03/14 21:58:40;;;;;;;8.65;1.80;;;;;;;21.50;30.52;101104.75;16119352;19;130296;-53
2023/03/14 22:04:02;;;;;;;6.60;1.55;;;;;;;21.39;30.83;101111.25;16119179;19;129751;-52
2023/03/14 22:09:24;;;;;;;12.95;1.80;;;;;;;21.28;31.03;101113.94;16117362;19;129574;-50
2023/03/14 22:14:46;;;;;;;6.07;1.33;;;;;;;21.19;31.48;101121.88;16117100;19;129825;-49
2023/03/14 22:20:11;;;;;;;7.43;1.88;;;;;;;21.11;31.72;101119.56;16119462;19;130604;-49
2023/03/14 22:25:32;;;;;;;11.52;1.58;;;;;;;21.01;31.48;101125.00;16114109;19;129616;-52
2023/03/14 22:30:54;;;;;;;8.60;1.70;;;;;;;20.93;31.56;101117.09;16112967;19;130769;-50
2023/03/14 22:36:16;;;;;;;7.22;1.40;;;;;;;20.85;32.12;101138.69;16115043;19;129435;-50
2023/03/14 22:41:38;;;;;;;12.40;1.77;;;;;;;20.79;32.02;101155.56;16100304;19;131130;-50
2023/03/14 22:47:00;;;;;;;6.22;1.45;;;;;;;20.72;31.88;101156.56;16103530;19;130836;-49
2023/03/14 22:52:21;;;;;;;18.55;1.90;;;;;;;20.66;32.23;101156.75;16101412;19;129557;-44
2023/03/14 22:57:43;;;;;;;5.07;1.48;;;;;;;20.60;32.12;101153.88;16104792;19;129783;-50
2023/03/14 23:03:05;;;;;;;9.40;1.60;;;;;;;20.55;32.33;101159.38;16112911;19;130103;-49
2023/03/14 23:08:27;;;;;;;16.30;1.80;;;;;;;20.45;32.46;101160.03;16111187;19;131397;-50
2023/03/14 23:13:49;;;;;;;13.73;1.30;;;;;;;20.38;32.23;101172.41;16106504;19;130468;-47
2023/03/14 23:19:11;;;;;;;9.27;2.05;;;;;;;20.29;32.26;101186.72;16112939;19;131091;-47
2023/03/14 23:24:33;;;;;;;6.60;1.60;;;;;;;20.22;32.43;101191.59;16124187;19;131127;-48
2023/03/14 23:29:55;;;;;;;4.18;1.33;;;;;;;20.15;32.16;101190.91;16122102;19;130441;-46
2023/03/14 23:35:16;;;;;;;10.90;1.80;;;;;;;20.07;32.45;101200.50;16122081;19;131374;-45
2023/03/14 23:40:38;;;;;;;11.00;1.98;;;;;;;20.00;32.18;101194.25;16124511;19;129960;-47
2023/03/14 23:46:01;;;;;;;5.43;1.60;;;;;;;19.93;32.40;101186.06;16122666;19;129431;-48
2023/03/14 23:51:23;;;;;;;7.63;1.70;;;;;;;19.88;32.42;101201.78;16122485;19;131217;-47
2023/03/14 23:56:45;;;;;;;8.40;1.67;;;;;;;19.82;32.45;101160.03;16121126;19;132469;-45
